sensor_id;sensor_type;location;lat;lon;timestamp;pressure;altitude;pressure_sealevel;temperature;humidity
76448;BME280;65284;51.040;13.722;2023-06-19T00:00:12;99684.72;;;19.39;63.97
76448;BME280;65284;51.040;13.722;2023-06-19T00:02:40;99685.03;;;19.31;64.25
76448;BME280;65284;51.040;13.722;2023-06-19T00:05:07;99676.44;;;19.22;63.97
76448;BME280;65284;51.040;13.722;2023-06-19T00:07:35;99676.75;;;19.32;63.59
76448;BME280;65284;51.040;13.722;2023-06-19T00:10:01;99682.66;;;19.23;63.82
76448;BME280;65284;51.040;13.722;2023-06-19T00:12:28;99677.59;;;18.96;64.50
76448;BME280;65284;51.040;13.722;2023-06-19T00:14:55;99670.53;;;18.95;64.79
76448;BME280;65284;51.040;13.722;2023-06-19T00:17:21;99669.19;;;19.23;64.10
76448;BME280;65284;51.040;13.722;2023-06-19T00:19:48;99666.13;;;19.19;63.92
76448;BME280;65284;51.040;13.722;2023-06-19T00:22:15;99669.72;;;18.95;64.87
76448;BME280;65284;51.040;13.722;2023-06-19T00:24:42;99667.63;;;18.97;64.25
76448;BME280;65284;51.040;13.722;2023-06-19T00:27:08;99665.47;;;19.05;64.49
76448;BME280;65284;51.040;13.722;2023-06-19T00:29:35;99673.63;;;19.17;64.60
76448;BME280;65284;51.040;13.722;2023-06-19T00:32:01;99673.66;;;19.10;64.14
76448;BME280;65284;51.040;13.722;2023-06-19T00:34:29;99674.25;;;19.31;63.89
76448;BME280;65284;51.040;13.722;2023-06-19T00:36:56;99667.78;;;19.20;64.21
76448;BME280;65284;51.040;13.722;2023-06-19T00:39:23;99672.78;;;19.17;64.53
76448;BME280;65284;51.040;13.722;2023-06-19T00:41:52;99669.78;;;18.88;65.17
76448;BME280;65284;51.040;13.722;2023-06-19T00:44:19;99666.63;;;18.73;65.47
76448;BME280;65284;51.040;13.722;2023-06-19T00:46:46;99666.13;;;18.57;65.85
76448;BME280;65284;51.040;13.722;2023-06-19T00:49:14;99664.22;;;18.64;65.82
76448;BME280;65284;51.040;13.722;2023-06-19T00:51:40;99661.19;;;18.54;66.20
76448;BME280;65284;51.040;13.722;2023-06-19T00:54:07;99661.69;;;18.70;65.57
76448;BME280;65284;51.040;13.722;2023-06-19T00:56:37;99670.47;;;18.58;66.29
76448;BME280;65284;51.040;13.722;2023-06-19T00:59:06;99663.06;;;18.54;66.27
76448;BME280;65284;51.040;13.722;2023-06-19T01:01:33;99656.38;;;18.38;66.57
76448;BME280;65284;51.040;13.722;2023-06-19T01:04:00;99650.75;;;18.46;66.33
76448;BME280;65284;51.040;13.722;2023-06-19T01:06:32;99659.25;;;18.43;66.44
76448;BME280;65284;51.040;13.722;2023-06-19T01:09:08;99657.44;;;18.37;66.58
76448;BME280;65284;51.040;13.722;2023-06-19T01:11:40;99662.16;;;18.41;66.57
76448;BME280;65284;51.040;13.722;2023-06-19T01:14:14;99657.00;;;18.40;66.74
76448;BME280;65284;51.040;13.722;2023-06-19T01:16:43;99657.91;;;18.27;67.18
76448;BME280;65284;51.040;13.722;2023-06-19T01:19:10;99660.56;;;18.34;66.99
76448;BME280;65284;51.040;13.722;2023-06-19T01:21:41;99659.69;;;18.15;67.61
76448;BME280;65284;51.040;13.722;2023-06-19T01:24:08;99656.34;;;18.19;67.65
76448;BME280;65284;51.040;13.722;2023-06-19T01:26:35;99651.34;;;18.23;67.62
76448;BME280;65284;51.040;13.722;2023-06-19T01:29:01;99653.41;;;18.21;67.91
76448;BME280;65284;51.040;13.722;2023-06-19T01:31:32;99634.97;;;18.25;67.77
76448;BME280;65284;51.040;13.722;2023-06-19T01:34:01;99644.81;;;18.12;68.02
76448;BME280;65284;51.040;13.722;2023-06-19T01:36:30;99647.16;;;18.27;67.80
76448;BME280;65284;51.040;13.722;2023-06-19T01:38:58;99648.41;;;18.25;67.90
76448;BME280;65284;51.040;13.722;2023-06-19T01:41:26;99634.06;;;18.12;68.37
76448;BME280;65284;51.040;13.722;2023-06-19T01:43:52;99635.72;;;18.13;68.17
76448;BME280;65284;51.040;13.722;2023-06-19T01:46:19;99634.22;;;18.17;68.39
76448;BME280;65284;51.040;13.722;2023-06-19T01:48:46;99635.28;;;18.16;68.35
76448;BME280;65284;51.040;13.722;2023-06-19T01:51:12;99626.66;;;18.33;67.81
76448;BME280;65284;51.040;13.722;2023-06-19T01:53:39;99638.56;;;18.18;67.99
76448;BME280;65284;51.040;13.722;2023-06-19T01:56:05;99632.41;;;18.11;68.38
76448;BME280;65284;51.040;13.722;2023-06-19T01:58:32;99625.25;;;18.05;68.39
76448;BME280;65284;51.040;13.722;2023-06-19T02:00:58;99622.56;;;18.05;68.48
76448;BME280;65284;51.040;13.722;2023-06-19T02:03:25;99619.59;;;18.13;68.38
76448;BME280;65284;51.040;13.722;2023-06-19T02:05:52;99625.25;;;18.05;68.51
76448;BME280;65284;51.040;13.722;2023-06-19T02:08:19;99617.22;;;17.99;68.79
76448;BME280;65284;51.040;13.722;2023-06-19T02:10:45;99611.44;;;17.95;69.33
76448;BME280;65284;51.040;13.722;2023-06-19T02:13:12;99616.50;;;17.85;69.48
76448;BME280;65284;51.040;13.722;2023-06-19T02:15:38;99616.06;;;17.88;69.44
76448;BME280;65284;51.040;13.722;2023-06-19T02:18:05;99607.03;;;17.76;70.07
76448;BME280;65284;51.040;13.722;2023-06-19T02:20:32;99614.84;;;17.77;69.55
76448;BME280;65284;51.040;13.722;2023-06-19T02:22:58;99614.69;;;17.79;69.81
76448;BME280;65284;51.040;13.722;2023-06-19T02:25:25;99613.63;;;17.80;69.87
76448;BME280;65284;51.040;13.722;2023-06-19T02:27:51;99613.66;;;17.73;70.03
76448;BME280;65284;51.040;13.722;2023-06-19T02:30:18;99610.41;;;17.64;70.28
76448;BME280;65284;51.040;13.722;2023-06-19T02:32:44;99611.28;;;17.58;70.55
76448;BME280;65284;51.040;13.722;2023-06-19T02:35:11;99615.03;;;17.57;70.60
76448;BME280;65284;51.040;13.722;2023-06-19T02:37:38;99608.22;;;17.48;70.93
76448;BME280;65284;51.040;13.722;2023-06-19T02:40:05;99604.72;;;17.47;70.96
76448;BME280;65284;51.040;13.722;2023-06-19T02:42:32;99602.59;;;17.56;70.58
76448;BME280;65284;51.040;13.722;2023-06-19T02:44:59;99590.66;;;17.52;70.91
76448;BME280;65284;51.040;13.722;2023-06-19T02:47:30;99602.28;;;17.46;71.19
76448;BME280;65284;51.040;13.722;2023-06-19T02:50:02;99597.75;;;17.40;71.46
76448;BME280;65284;51.040;13.722;2023-06-19T02:52:30;99596.47;;;17.49;71.05
76448;BME280;65284;51.040;13.722;2023-06-19T02:54:56;99598.97;;;17.44;71.17
76448;BME280;65284;51.040;13.722;2023-06-19T02:57:23;99603.97;;;17.40;71.39
76448;BME280;65284;51.040;13.722;2023-06-19T02:59:49;99596.47;;;17.49;71.15
76448;BME280;65284;51.040;13.722;2023-06-19T03:02:16;99594.84;;;17.41;71.41
76448;BME280;65284;51.040;13.722;2023-06-19T03:04:42;99598.59;;;17.40;71.30
76448;BME280;65284;51.040;13.722;2023-06-19T03:07:10;99594.81;;;17.48;71.00
76448;BME280;65284;51.040;13.722;2023-06-19T03:09:39;99597.72;;;17.46;71.35
76448;BME280;65284;51.040;13.722;2023-06-19T03:12:06;99596.47;;;17.49;71.14
76448;BME280;65284;51.040;13.722;2023-06-19T03:14:32;99591.09;;;17.49;70.81
76448;BME280;65284;51.040;13.722;2023-06-19T03:16:59;99587.31;;;17.57;70.88
76448;BME280;65284;51.040;13.722;2023-06-19T03:19:25;99590.22;;;17.55;70.95
76448;BME280;65284;51.040;13.722;2023-06-19T03:21:52;99591.81;;;17.63;70.60
76448;BME280;65284;51.040;13.722;2023-06-19T03:24:18;99595.16;;;17.58;70.95
76448;BME280;65284;51.040;13.722;2023-06-19T03:26:45;99596.81;;;17.59;70.81
76448;BME280;65284;51.040;13.722;2023-06-19T03:29:11;99598.47;;;17.60;70.80
76448;BME280;65284;51.040;13.722;2023-06-19T03:31:38;99593.53;;;17.57;70.88
76448;BME280;65284;51.040;13.722;2023-06-19T03:34:05;99590.91;;;17.44;71.39
76448;BME280;65284;51.040;13.722;2023-06-19T03:36:32;99593.59;;;17.44;71.24
76448;BME280;65284;51.040;13.722;2023-06-19T03:38:58;99594.41;;;17.51;70.90
76448;BME280;65284;51.040;13.722;2023-06-19T03:41:25;99593.09;;;17.60;70.68
76448;BME280;65284;51.040;13.722;2023-06-19T03:43:51;99585.28;;;17.52;71.14
76448;BME280;65284;51.040;13.722;2023-06-19T03:46:18;99588.19;;;17.50;71.06
76448;BME280;65284;51.040;13.722;2023-06-19T03:48:44;99588.81;;;17.52;71.02
76448;BME280;65284;51.040;13.722;2023-06-19T03:51:11;99592.13;;;17.48;71.45
76448;BME280;65284;51.040;13.722;2023-06-19T03:53:37;99585.91;;;17.54;71.15
76448;BME280;65284;51.040;13.722;2023-06-19T03:56:04;99591.44;;;17.59;71.05
76448;BME280;65284;51.040;13.722;2023-06-19T03:58:30;99594.34;;;17.58;70.72
76448;BME280;65284;51.040;13.722;2023-06-19T04:00:56;99601.78;;;17.56;71.05
76448;BME280;65284;51.040;13.722;2023-06-19T04:03:23;99598.09;;;17.50;71.46
76448;BME280;65284;51.040;13.722;2023-06-19T04:05:50;99591.44;;;17.59;70.93
76448;BME280;65284;51.040;13.722;2023-06-19T04:08:16;99589.81;;;17.58;71.10
76448;BME280;65284;51.040;13.722;2023-06-19T04:10:43;99592.72;;;17.50;71.32
76448;BME280;65284;51.040;13.722;2023-06-19T04:13:10;99591.09;;;17.49;70.74
76448;BME280;65284;51.040;13.722;2023-06-19T04:15:36;99593.97;;;17.54;71.42
76448;BME280;65284;51.040;13.722;2023-06-19T04:18:03;99589.38;;;17.61;70.95
76448;BME280;65284;51.040;13.722;2023-06-19T04:20:30;99590.56;;;17.65;71.20
76448;BME280;65284;51.040;13.722;2023-06-19T04:22:57;99596.13;;;17.70;71.02
76448;BME280;65284;51.040;13.722;2023-06-19T04:25:23;99587.19;;;17.77;70.89
76448;BME280;65284;51.040;13.722;2023-06-19T04:27:49;99605.16;;;17.83;70.35
76448;BME280;65284;51.040;13.722;2023-06-19T04:30:16;99609.38;;;17.97;70.27
76448;BME280;65284;51.040;13.722;2023-06-19T04:32:42;99611.97;;;18.10;69.67
76448;BME280;65284;51.040;13.722;2023-06-19T04:35:10;99605.28;;;18.19;69.27
76448;BME280;65284;51.040;13.722;2023-06-19T04:37:36;99603.78;;;18.24;69.19
76448;BME280;65284;51.040;13.722;2023-06-19T04:40:03;99605.13;;;18.33;68.70
76448;BME280;65284;51.040;13.722;2023-06-19T04:42:31;99603.66;;;18.37;68.98
76448;BME280;65284;51.040;13.722;2023-06-19T04:44:57;99599.84;;;18.45;68.65
76448;BME280;65284;51.040;13.722;2023-06-19T04:47:25;99604.72;;;18.54;68.35
76448;BME280;65284;51.040;13.722;2023-06-19T04:50:09;99610.09;;;18.54;68.83
76448;BME280;65284;51.040;13.722;2023-06-19T04:52:35;99597.41;;;18.61;68.36
76448;BME280;65284;51.040;13.722;2023-06-19T04:55:02;99598.88;;;18.57;68.11
76448;BME280;65284;51.040;13.722;2023-06-19T04:57:28;99597.69;;;18.53;68.28
76448;BME280;65284;51.040;13.722;2023-06-19T04:59:54;99600.75;;;18.57;68.46
76448;BME280;65284;51.040;13.722;2023-06-19T05:02:21;99598.03;;;18.63;68.22
76448;BME280;65284;51.040;13.722;2023-06-19T05:04:50;99608.09;;;18.68;68.00
76448;BME280;65284;51.040;13.722;2023-06-19T05:07:17;99609.25;;;18.97;67.02
76448;BME280;65284;51.040;13.722;2023-06-19T05:09:44;99615.81;;;19.01;66.67
76448;BME280;65284;51.040;13.722;2023-06-19T05:12:10;99615.44;;;18.79;67.34
76448;BME280;65284;51.040;13.722;2023-06-19T05:14:37;99615.22;;;18.81;67.42
76448;BME280;65284;51.040;13.722;2023-06-19T05:17:03;99610.59;;;18.88;67.30
76448;BME280;65284;51.040;13.722;2023-06-19T05:19:30;99609.72;;;18.76;67.50
76448;BME280;65284;51.040;13.722;2023-06-19T05:21:56;99606.13;;;18.82;67.48
76448;BME280;65284;51.040;13.722;2023-06-19T05:24:23;99612.03;;;18.91;67.20
76448;BME280;65284;51.040;13.722;2023-06-19T05:26:49;99615.16;;;18.88;67.59
76448;BME280;65284;51.040;13.722;2023-06-19T05:29:16;99619.63;;;18.94;67.28
76448;BME280;65284;51.040;13.722;2023-06-19T05:31:42;99614.84;;;18.96;67.50
76448;BME280;65284;51.040;13.722;2023-06-19T05:34:09;99620.00;;;18.97;67.61
76448;BME280;65284;51.040;13.722;2023-06-19T05:36:35;99615.81;;;19.01;67.36
76448;BME280;65284;51.040;13.722;2023-06-19T05:39:02;99619.47;;;19.07;67.08
76448;BME280;65284;51.040;13.722;2023-06-19T05:41:28;99614.19;;;19.00;67.45
76448;BME280;65284;51.040;13.722;2023-06-19T05:43:57;99617.13;;;19.10;67.23
76448;BME280;65284;51.040;13.722;2023-06-19T05:46:23;99614.31;;;19.05;67.37
76448;BME280;65284;51.040;13.722;2023-06-19T05:48:50;99619.72;;;19.05;67.65
76448;BME280;65284;51.040;13.722;2023-06-19T05:51:16;99614.44;;;19.10;67.56
76448;BME280;65284;51.040;13.722;2023-06-19T05:53:42;99617.59;;;19.07;67.78
76448;BME280;65284;51.040;13.722;2023-06-19T05:56:09;99614.22;;;19.12;67.52
76448;BME280;65284;51.040;13.722;2023-06-19T05:58:36;99619.38;;;19.14;67.38
76448;BME280;65284;51.040;13.722;2023-06-19T06:01:02;99622.22;;;19.19;67.13
76448;BME280;65284;51.040;13.722;2023-06-19T06:03:29;99620.94;;;19.21;67.57
76448;BME280;65284;51.040;13.722;2023-06-19T06:05:57;99619.22;;;19.27;67.28
76448;BME280;65284;51.040;13.722;2023-06-19T06:08:29;99628.72;;;19.29;67.10
76448;BME280;65284;51.040;13.722;2023-06-19T06:10:56;99632.84;;;19.32;67.24
76448;BME280;65284;51.040;13.722;2023-06-19T06:13:22;99629.09;;;19.33;67.30
76448;BME280;65284;51.040;13.722;2023-06-19T06:15:50;99621.72;;;19.40;66.76
76448;BME280;65284;51.040;13.722;2023-06-19T06:18:17;99629.22;;;19.38;67.11
76448;BME280;65284;51.040;13.722;2023-06-19T06:20:43;99638.19;;;19.50;66.61
76448;BME280;65284;51.040;13.722;2023-06-19T06:23:10;99629.28;;;19.50;66.70
76448;BME280;65284;51.040;13.722;2023-06-19T06:25:36;99637.56;;;19.48;66.74
76448;BME280;65284;51.040;13.722;2023-06-19T06:28:03;99634.56;;;19.57;66.31
76448;BME280;65284;51.040;13.722;2023-06-19T06:30:29;99645.47;;;19.62;66.53
76448;BME280;65284;51.040;13.722;2023-06-19T06:32:55;99638.59;;;19.66;66.45
76448;BME280;65284;51.040;13.722;2023-06-19T06:35:22;99642.72;;;19.68;66.64
76448;BME280;65284;51.040;13.722;2023-06-19T06:37:48;99641.13;;;19.79;66.15
76448;BME280;65284;51.040;13.722;2023-06-19T06:40:16;99645.78;;;19.72;66.43
76448;BME280;65284;51.040;13.722;2023-06-19T06:42:42;99639.56;;;19.71;66.40
76448;BME280;65284;51.040;13.722;2023-06-19T06:45:09;99643.06;;;19.72;66.51
76448;BME280;65284;51.040;13.722;2023-06-19T06:47:35;99640.38;;;19.72;66.59
76448;BME280;65284;51.040;13.722;2023-06-19T06:50:02;99650.69;;;19.75;66.37
76448;BME280;65284;51.040;13.722;2023-06-19T06:52:28;99651.31;;;19.77;66.63
76448;BME280;65284;51.040;13.722;2023-06-19T06:54:56;99654.13;;;19.82;66.49
76448;BME280;65284;51.040;13.722;2023-06-19T06:57:23;99651.09;;;19.90;66.35
76448;BME280;65284;51.040;13.722;2023-06-19T06:59:49;99654.53;;;19.97;66.08
76448;BME280;65284;51.040;13.722;2023-06-19T07:02:16;99652.06;;;20.08;65.77
76448;BME280;65284;51.040;13.722;2023-06-19T07:04:42;99647.41;;;20.15;65.86
76448;BME280;65284;51.040;13.722;2023-06-19T07:07:09;99651.28;;;20.19;65.72
76448;BME280;65284;51.040;13.722;2023-06-19T07:09:35;99650.47;;;20.42;65.31
76448;BME280;65284;51.040;13.722;2023-06-19T07:12:02;99654.44;;;20.39;65.25
76448;BME280;65284;51.040;13.722;2023-06-19T07:14:31;99651.63;;;20.34;65.66
76448;BME280;65284;51.040;13.722;2023-06-19T07:16:57;99656.56;;;20.37;65.42
76448;BME280;65284;51.040;13.722;2023-06-19T07:19:24;99657.16;;;20.39;65.66
76448;BME280;65284;51.040;13.722;2023-06-19T07:21:51;99649.28;;;20.50;65.42
76448;BME280;65284;51.040;13.722;2023-06-19T07:24:17;99659.63;;;20.53;65.25
76448;BME280;65284;51.040;13.722;2023-06-19T07:26:45;99655.28;;;20.52;65.13
76448;BME280;65284;51.040;13.722;2023-06-19T07:29:12;99656.72;;;20.54;65.14
76448;BME280;65284;51.040;13.722;2023-06-19T07:31:38;99650.63;;;20.71;64.93
76448;BME280;65284;51.040;13.722;2023-06-19T07:34:05;99659.16;;;20.79;64.52
76448;BME280;65284;51.040;13.722;2023-06-19T07:36:31;99667.72;;;20.88;64.75
76448;BME280;65284;51.040;13.722;2023-06-19T07:38:58;99657.38;;;20.97;64.68
76448;BME280;65284;51.040;13.722;2023-06-19T07:41:24;99657.97;;;20.99;64.28
76448;BME280;65284;51.040;13.722;2023-06-19T07:43:50;99656.53;;;21.08;63.82
76448;BME280;65284;51.040;13.722;2023-06-19T07:46:17;99652.31;;;21.12;64.13
76448;BME280;65284;51.040;13.722;2023-06-19T07:48:43;99652.84;;;21.26;63.52
76448;BME280;65284;51.040;13.722;2023-06-19T07:51:10;99651.81;;;21.27;62.95
76448;BME280;65284;51.040;13.722;2023-06-19T07:53:36;99658.59;;;21.29;62.77
76448;BME280;65284;51.040;13.722;2023-06-19T07:56:03;99662.84;;;21.25;62.85
76448;BME280;65284;51.040;13.722;2023-06-19T07:58:29;99660.25;;;21.30;63.01
76448;BME280;65284;51.040;13.722;2023-06-19T08:00:56;99664.22;;;21.40;63.03
76448;BME280;65284;51.040;13.722;2023-06-19T08:03:22;99665.97;;;21.46;62.83
76448;BME280;65284;51.040;13.722;2023-06-19T08:05:50;99671.22;;;21.52;62.28
76448;BME280;65284;51.040;13.722;2023-06-19T08:08:17;99661.44;;;21.63;61.69
76448;BME280;65284;51.040;13.722;2023-06-19T08:10:43;99659.31;;;21.65;61.56
76448;BME280;65284;51.040;13.722;2023-06-19T08:13:10;99665.06;;;21.69;61.86
76448;BME280;65284;51.040;13.722;2023-06-19T08:15:37;99666.47;;;21.71;61.76
76448;BME280;65284;51.040;13.722;2023-06-19T08:18:04;99670.41;;;21.80;61.80
76448;BME280;65284;51.040;13.722;2023-06-19T08:20:30;99681.72;;;21.77;61.66
76448;BME280;65284;51.040;13.722;2023-06-19T08:22:57;99667.94;;;21.79;61.30
76448;BME280;65284;51.040;13.722;2023-06-19T08:25:23;99675.72;;;21.75;61.99
76448;BME280;65284;51.040;13.722;2023-06-19T08:27:49;99678.66;;;21.74;62.00
76448;BME280;65284;51.040;13.722;2023-06-19T08:30:16;99677.28;;;21.71;62.50
76448;BME280;65284;51.040;13.722;2023-06-19T08:32:43;99681.59;;;21.72;62.01
76448;BME280;65284;51.040;13.722;2023-06-19T08:35:10;99682.75;;;21.76;62.07
76448;BME280;65284;51.040;13.722;2023-06-19T08:37:36;99680.06;;;21.76;62.08
76448;BME280;65284;51.040;13.722;2023-06-19T08:40:04;99684.31;;;21.72;61.89
76448;BME280;65284;51.040;13.722;2023-06-19T08:42:35;99678.91;;;21.72;62.11
76448;BME280;65284;51.040;13.722;2023-06-19T08:45:02;99676.44;;;21.71;62.82
76448;BME280;65284;51.040;13.722;2023-06-19T08:47:30;99670.69;;;21.67;63.37
76448;BME280;65284;51.040;13.722;2023-06-19T08:49:58;99682.47;;;21.61;64.32
76448;BME280;65284;51.040;13.722;2023-06-19T08:52:27;99678.69;;;21.62;63.51
76448;BME280;65284;51.040;13.722;2023-06-19T08:54:54;99670.47;;;21.69;63.55
76448;BME280;65284;51.040;13.722;2023-06-19T08:57:20;99673.81;;;21.76;63.48
76448;BME280;65284;51.040;13.722;2023-06-19T08:59:50;99678.75;;;21.79;63.81
76448;BME280;65284;51.040;13.722;2023-06-19T09:02:17;99687.19;;;21.83;63.95
76448;BME280;65284;51.040;13.722;2023-06-19T09:04:43;99694.19;;;21.95;63.67
76448;BME280;65284;51.040;13.722;2023-06-19T09:07:12;99694.44;;;21.94;63.57
76448;BME280;65284;51.040;13.722;2023-06-19T09:09:44;99689.13;;;21.99;63.33
76448;BME280;65284;51.040;13.722;2023-06-19T09:12:13;99683.38;;;21.95;63.80
76448;BME280;65284;51.040;13.722;2023-06-19T09:14:44;99676.66;;;21.98;64.35
76448;BME280;65284;51.040;13.722;2023-06-19T09:17:21;99684.19;;;22.24;63.56
76448;BME280;65284;51.040;13.722;2023-06-19T09:19:52;99689.50;;;22.19;63.60
76448;BME280;65284;51.040;13.722;2023-06-19T09:22:21;99682.50;;;22.07;64.23
76448;BME280;65284;51.040;13.722;2023-06-19T09:24:48;99686.25;;;22.06;64.70
76448;BME280;65284;51.040;13.722;2023-06-19T09:27:17;99684.53;;;21.99;64.62
76448;BME280;65284;51.040;13.722;2023-06-19T09:29:49;99683.13;;;21.97;63.80
76448;BME280;65284;51.040;13.722;2023-06-19T09:32:24;99681.06;;;21.87;64.60
76448;BME280;65284;51.040;13.722;2023-06-19T09:34:52;99685.34;;;21.83;64.07
76448;BME280;65284;51.040;13.722;2023-06-19T09:37:28;99683.66;;;21.82;64.53
76448;BME280;65284;51.040;13.722;2023-06-19T09:39:59;99685.81;;;21.80;64.81
76448;BME280;65284;51.040;13.722;2023-06-19T09:42:32;99687.28;;;21.88;65.18
76448;BME280;65284;51.040;13.722;2023-06-19T09:45:01;99684.34;;;21.89;65.35
76448;BME280;65284;51.040;13.722;2023-06-19T09:47:32;99675.00;;;21.97;65.09
76448;BME280;65284;51.040;13.722;2023-06-19T09:50:02;99678.78;;;21.96;65.91
76448;BME280;65284;51.040;13.722;2023-06-19T09:52:29;99672.41;;;22.02;65.83
76448;BME280;65284;51.040;13.722;2023-06-19T09:54:56;99679.28;;;21.93;65.50
76448;BME280;65284;51.040;13.722;2023-06-19T09:57:24;99677.16;;;21.95;64.99
76448;BME280;65284;51.040;13.722;2023-06-19T09:59:54;99678.31;;;21.99;64.85
76448;BME280;65284;51.040;13.722;2023-06-19T10:02:23;99675.00;;;21.97;64.84
76448;BME280;65284;51.040;13.722;2023-06-19T10:04:53;99676.75;;;22.03;64.56
76448;BME280;65284;51.040;13.722;2023-06-19T10:07:23;99672.41;;;22.02;64.59
76448;BME280;65284;51.040;13.722;2023-06-19T10:10:05;99674.13;;;22.08;64.71
76448;BME280;65284;51.040;13.722;2023-06-19T10:12:44;99679.13;;;22.16;64.03
76448;BME280;65284;51.040;13.722;2023-06-19T10:15:16;99672.44;;;22.36;63.35
76448;BME280;65284;51.040;13.722;2023-06-19T10:17:49;99665.97;;;22.37;62.71
76448;BME280;65284;51.040;13.722;2023-06-19T10:20:27;99676.84;;;22.42;62.65
76448;BME280;65284;51.040;13.722;2023-06-19T10:23:04;99672.13;;;22.49;62.81
76448;BME280;65284;51.040;13.722;2023-06-19T10:25:36;99672.50;;;22.58;62.51
76448;BME280;65284;51.040;13.722;2023-06-19T10:28:04;99663.09;;;22.60;62.83
76448;BME280;65284;51.040;13.722;2023-06-19T10:30:32;99664.72;;;22.61;62.84
76448;BME280;65284;51.040;13.722;2023-06-19T10:33:00;99661.59;;;22.69;62.68
76448;BME280;65284;51.040;13.722;2023-06-19T10:35:29;99662.53;;;22.80;62.58
76448;BME280;65284;51.040;13.722;2023-06-19T10:38:04;99659.00;;;22.80;62.95
76448;BME280;65284;51.040;13.722;2023-06-19T10:40:30;99660.91;;;22.96;62.50
76448;BME280;65284;51.040;13.722;2023-06-19T10:42:57;99649.75;;;23.14;61.87
76448;BME280;65284;51.040;13.722;2023-06-19T10:45:23;99645.00;;;23.27;61.14
76448;BME280;65284;51.040;13.722;2023-06-19T10:47:55;99645.66;;;23.34;60.30
76448;BME280;65284;51.040;13.722;2023-06-19T10:50:22;99637.00;;;23.37;59.73
76448;BME280;65284;51.040;13.722;2023-06-19T10:52:52;99634.84;;;23.39;60.28
76448;BME280;65284;51.040;13.722;2023-06-19T10:55:21;99639.91;;;23.30;60.02
76448;BME280;65284;51.040;13.722;2023-06-19T10:57:49;99634.19;;;23.27;59.90
76448;BME280;65284;51.040;13.722;2023-06-19T11:00:23;99648.47;;;23.44;59.24
76448;BME280;65284;51.040;13.722;2023-06-19T11:02:51;99648.25;;;23.51;59.50
76448;BME280;65284;51.040;13.722;2023-06-19T11:05:22;99647.06;;;23.64;58.83
76448;BME280;65284;51.040;13.722;2023-06-19T11:07:57;99650.41;;;23.71;58.80
76448;BME280;65284;51.040;13.722;2023-06-19T11:10:29;99648.28;;;23.78;58.30
76448;BME280;65284;51.040;13.722;2023-06-19T11:12:57;99648.34;;;23.83;58.69
76448;BME280;65284;51.040;13.722;2023-06-19T11:15:33;99634.91;;;23.98;57.94
76448;BME280;65284;51.040;13.722;2023-06-19T11:18:02;99642.88;;;24.10;57.70
76448;BME280;65284;51.040;13.722;2023-06-19T11:20:29;99645.94;;;24.19;57.85
76448;BME280;65284;51.040;13.722;2023-06-19T11:22:57;99647.09;;;24.28;56.86
76448;BME280;65284;51.040;13.722;2023-06-19T11:25:34;99649.63;;;24.40;56.91
76448;BME280;65284;51.040;13.722;2023-06-19T11:28:01;99649.88;;;24.38;55.63
76448;BME280;65284;51.040;13.722;2023-06-19T11:30:31;99651.06;;;24.47;55.32
76448;BME280;65284;51.040;13.722;2023-06-19T11:32:58;99649.47;;;24.51;55.19
76448;BME280;65284;51.040;13.722;2023-06-19T11:35:32;99643.53;;;24.60;54.89
76448;BME280;65284;51.040;13.722;2023-06-19T11:38:00;99634.09;;;24.72;54.02
76448;BME280;65284;51.040;13.722;2023-06-19T11:40:26;99619.78;;;24.82;53.62
76448;BME280;65284;51.040;13.722;2023-06-19T11:42:55;99612.72;;;24.86;53.31
76448;BME280;65284;51.040;13.722;2023-06-19T11:45:21;99609.78;;;24.98;52.97
76448;BME280;65284;51.040;13.722;2023-06-19T11:47:49;99609.31;;;25.11;52.12
76448;BME280;65284;51.040;13.722;2023-06-19T11:50:16;99610.13;;;25.12;52.23
76448;BME280;65284;51.040;13.722;2023-06-19T11:52:43;99612.91;;;25.27;51.73
76448;BME280;65284;51.040;13.722;2023-06-19T11:55:13;99611.28;;;25.36;51.34
76448;BME280;65284;51.040;13.722;2023-06-19T11:57:42;99612.94;;;25.42;50.24
76448;BME280;65284;51.040;13.722;2023-06-19T12:00:15;99611.88;;;25.54;50.26
76448;BME280;65284;51.040;13.722;2023-06-19T12:02:43;99607.28;;;25.59;50.26
76448;BME280;65284;51.040;13.722;2023-06-19T12:05:10;99618.72;;;25.72;49.53
76448;BME280;65284;51.040;13.722;2023-06-19T12:07:37;99610.81;;;25.80;47.10
76448;BME280;65284;51.040;13.722;2023-06-19T12:10:04;99609.75;;;25.97;47.71
76448;BME280;65284;51.040;13.722;2023-06-19T12:12:36;99612.50;;;26.07;47.41
76448;BME280;65284;51.040;13.722;2023-06-19T12:15:05;99597.75;;;26.23;46.87
76448;BME280;65284;51.040;13.722;2023-06-19T12:17:31;99594.50;;;26.31;46.21
76448;BME280;65284;51.040;13.722;2023-06-19T12:19:59;99592.88;;;26.36;46.44
76448;BME280;65284;51.040;13.722;2023-06-19T12:22:26;99593.94;;;26.45;46.32
76448;BME280;65284;51.040;13.722;2023-06-19T12:24:53;99592.81;;;26.56;45.37
76448;BME280;65284;51.040;13.722;2023-06-19T12:27:20;99598.81;;;26.48;45.51
76448;BME280;65284;51.040;13.722;2023-06-19T12:29:46;99598.00;;;26.47;44.03
76448;BME280;65284;51.040;13.722;2023-06-19T12:32:13;99585.75;;;26.65;43.71
76448;BME280;65284;51.040;13.722;2023-06-19T12:34:39;99597.75;;;26.59;44.14
76448;BME280;65284;51.040;13.722;2023-06-19T12:37:06;99596.91;;;26.64;41.86
76448;BME280;65284;51.040;13.722;2023-06-19T12:39:33;99587.34;;;26.71;43.24
76448;BME280;65284;51.040;13.722;2023-06-19T12:41:59;99583.53;;;26.67;42.56
76448;BME280;65284;51.040;13.722;2023-06-19T12:44:26;99589.53;;;26.74;42.48
76448;BME280;65284;51.040;13.722;2023-06-19T12:46:52;99587.13;;;26.58;43.94
76448;BME280;65284;51.040;13.722;2023-06-19T12:49:19;99578.94;;;26.58;42.88
76448;BME280;65284;51.040;13.722;2023-06-19T12:51:45;99571.31;;;26.60;43.01